Goodwill — DSOW6 — position and weather

sailwx.info

Track history (hours):
 
Tides and Currents Weather Stations Pressure Air Temp Water Temp Dewpoint Dewpoint Depression Visibility Wind Speed Wind Dir Waves Ship Positions

Goodwill

Last reported at 2014-Nov-20 17:09 UTC. Time now 2014-Dec-19 12:56 UTC.
Position S 25°35' E 153°57'.
Warning: this ship's position is 28 days out of date.

Length 269 m; draft 15.1 m.

Type: Cargo ship. MMSI: 440541000.

Date/timePositionNaut miles runAvg speedWind from/ knotsBaromVisibWave heightAir tempDewpointWater temp
2014-Nov-20 17:09S 25°35' E 153°57'16 8.5
2014-Nov-20 15:17S 25°51' E 153°57'6 8.2
2014-Nov-20 14:30S 25°57' E 153°57'9 7.8
2014-Nov-20 13:24S 26°06' E 153°57'7 7.7
2014-Nov-20 12:33S 26°13' E 153°57'8 7.7
2014-Nov-20 11:33S 26°20' E 153°57'11 7.6
2014-Nov-20 10:03S 26°32' E 153°57'4 7.4
2014-Nov-20 09:33S 26°35' E 153°57'7 7.2
2014-Nov-20 08:33S 26°43' E 153°57'8 7.6
2014-Nov-20 07:33S 26°50' E 153°57'8 7.7
2014-Nov-20 06:33S 26°58' E 153°57'8 8.1
2014-Nov-20 05:33S 27°06' E 153°56'9 8.9
2014-Nov-20 04:33S 27°15' E 153°56'9 9.3
2014-Nov-20 03:32S 27°24' E 153°56'9 9.6
2014-Nov-20 02:33S 27°34' E 153°57'1010.0
2014-Nov-20 01:33S 27°44' E 153°57'1010.3
2014-Nov-20 00:33S 27°54' E 153°57'1310.2
2014-Nov-19 23:16S 28°07' E 153°56'9 9.5
2014-Nov-19 22:19S 28°16' E 153°56'255 7.8
2014-Nov-18 13:33S 32°24' E 152°44'1010.1
2014-Nov-18 12:32S 32°33' E 152°38'1010.0
2014-Nov-18 11:33S 32°39' E 152°30'9 9.3
2014-Nov-18 10:33S 32°46' E 152°22'10 9.5
2014-Nov-18 09:33S 32°52' E 152°13'9 9.5
2014-Nov-18 08:33S 32°56' E 152°03'1010.1
2014-Nov-18 07:33S 32°57' E 151°51'5 4.7
2014-Nov-18 06:33S 32°54' E 151°46'2 1.9
2014-Nov-18 05:33S 32°53' E 151°45'0 0.0
2014-Nov-18 04:32S 32°53' E 151°45'0 0.0
2014-Nov-18 03:32S 32°53' E 151°45'0 0.0
2014-Nov-18 02:32S 32°53' E 151°45'0 0.0
2014-Nov-18 00:32S 32°53' E 151°45'0 0.0
2014-Nov-17 22:14S 32°53' E 151°45'0 0.0
2014-Nov-17 19:32S 32°53' E 151°45'0 0.0
2014-Nov-17 18:32S 32°53' E 151°45'0 0.0
2014-Nov-17 17:32S 32°53' E 151°45'0 0.0
2014-Nov-17 16:32S 32°53' E 151°45'0 0.0
2014-Nov-17 15:31S 32°53' E 151°45'0 0.0
2014-Nov-17 14:31S 32°53' E 151°45'0 0.0
2014-Nov-17 13:31S 32°53' E 151°45'0 0.0
2014-Nov-17 12:28S 32°53' E 151°45'0 0.0
2014-Nov-17 11:25S 32°53' E 151°45'0 0.0
2014-Nov-17 08:29S 32°53' E 151°45'0 0.0
2014-Nov-17 07:32S 32°53' E 151°45'0 0.0
2014-Nov-17 06:32S 32°53' E 151°45'0 0.0
2014-Nov-17 05:29S 32°53' E 151°45'0 0.0
2014-Nov-17 04:32S 32°53' E 151°45'0 0.0
2014-Nov-17 03:32S 32°53' E 151°45'0 0.0
2014-Nov-17 02:32S 32°53' E 151°45'0 0.0
2014-Nov-17 01:32S 32°53' E 151°45'0 0.0
2014-Nov-17 00:32S 32°53' E 151°45'0 0.0
2014-Nov-16 23:32S 32°53' E 151°45'0 0.0
2014-Nov-16 22:32S 32°53' E 151°45'0 0.0
2014-Nov-16 21:26S 32°53' E 151°45'0 0.0
2014-Nov-16 20:32S 32°53' E 151°45'0 0.4
2014-Nov-16 19:33S 32°53' E 151°45'3 2.8
2014-Nov-16 18:34S 32°55' E 151°48'8 8.5
2014-Nov-16 17:33S 32°58' E 151°57'10 9.8
2014-Nov-16 16:33S 32°58' E 152°09'2 2.2
2014-Nov-16 15:33S 32°58' E 152°12'1 0.9
2014-Nov-16 14:33S 32°59' E 152°11'1 1.2
2014-Nov-16 13:27S 33°00' E 152°10'1 1.4
2014-Nov-16 12:33S 33°01' E 152°10'1 1.5
2014-Nov-16 11:33S 33°02' E 152°09'2 1.6
2014-Nov-16 10:33S 33°04' E 152°08'2 1.5
2014-Nov-16 09:33S 33°05' E 152°06'2 1.6
2014-Nov-16 08:33S 33°06' E 152°05'3 2.9
2014-Nov-16 07:33S 33°05' E 152°02'8 8.1
2014-Nov-16 06:33S 33°00' E 151°54'6 6.0
2014-Nov-16 05:33S 33°05' E 151°59'2 1.8
2014-Nov-16 04:33S 33°03' E 151°58'3 1.9
2014-Nov-16 03:15S 33°01' E 151°57'1 1.4
2014-Nov-16 02:33S 32°60' E 151°56'2 1.5
2014-Nov-16 01:34S 33°01' E 151°55'7 6.6
2014-Nov-16 00:34S 33°04' E 152°02'6 5.3
2014-Nov-15 23:32S 33°07' E 152°07'2 1.5
2014-Nov-15 22:22S 33°06' E 152°06'1 1.7
2014-Nov-15 21:34S 33°04' E 152°06'9 8.9
2014-Nov-15 20:33S 32°57' E 151°60'1212.2
2014-Nov-15 19:34S 32°50' E 152°12'1312.9
2014-Nov-15 18:33S 32°41' E 152°23'1212.3
2014-Nov-15 17:34S 32°33' E 152°34'1312.3
2014-Nov-15 16:30S 32°20' E 152°37'29413.8
2014-Nov-14 19:16S 27°31' E 153°40'1014.1
2014-Nov-14 18:33S 27°21' E 153°41'1413.6
2014-Nov-14 17:33S 27°08' E 153°42'1413.8
2014-Nov-14 16:33S 26°54' E 153°43'1413.9
2014-Nov-14 15:33S 26°40' E 153°43'1414.1
2014-Nov-14 14:33S 26°26' E 153°45'2914.4
2014-Nov-14 12:33S 25°57' E 153°49'1515.3
2014-Nov-14 11:33S 25°42' E 153°50'1716.8
2014-Nov-14 10:34S 25°25' E 153°49'  
Track history (hours):
 
Tides and Currents Weather Stations Pressure Air Temp Water Temp Dewpoint Dewpoint Depression Visibility Wind Speed Wind Dir Waves Ship Positions

Goodwill

Last reported at 2014-Nov-20 17:09 UTC. Time now 2014-Dec-19 12:56 UTC.
Position S 25°35' E 153°57'.
Warning: this ship's position is 28 days out of date.

Length 269 m; draft 15.1 m.

Type: Cargo ship. MMSI: 440541000.

Date/timePositionNaut miles runAvg speedWind from/ knotsBaromVisibWave heightAir tempDewpointWater temp
2014-Nov-20 17:09S 25°35' E 153°57'16 8.5
2014-Nov-20 15:17S 25°51' E 153°57'6 8.2
2014-Nov-20 14:30S 25°57' E 153°57'9 7.8
2014-Nov-20 13:24S 26°06' E 153°57'7 7.7
2014-Nov-20 12:33S 26°13' E 153°57'8 7.7
2014-Nov-20 11:33S 26°20' E 153°57'11 7.6
2014-Nov-20 10:03S 26°32' E 153°57'4 7.4
2014-Nov-20 09:33S 26°35' E 153°57'7 7.2
2014-Nov-20 08:33S 26°43' E 153°57'8 7.6
2014-Nov-20 07:33S 26°50' E 153°57'8 7.7
2014-Nov-20 06:33S 26°58' E 153°57'8 8.1
2014-Nov-20 05:33S 27°06' E 153°56'9 8.9
2014-Nov-20 04:33S 27°15' E 153°56'9 9.3
2014-Nov-20 03:32S 27°24' E 153°56'9 9.6
2014-Nov-20 02:33S 27°34' E 153°57'1010.0
2014-Nov-20 01:33S 27°44' E 153°57'1010.3
2014-Nov-20 00:33S 27°54' E 153°57'1310.2
2014-Nov-19 23:16S 28°07' E 153°56'9 9.5
2014-Nov-19 22:19S 28°16' E 153°56'255 7.8
2014-Nov-18 13:33S 32°24' E 152°44'1010.1
2014-Nov-18 12:32S 32°33' E 152°38'1010.0
2014-Nov-18 11:33S 32°39' E 152°30'9 9.3
2014-Nov-18 10:33S 32°46' E 152°22'10 9.5
2014-Nov-18 09:33S 32°52' E 152°13'9 9.5
2014-Nov-18 08:33S 32°56' E 152°03'1010.1
2014-Nov-18 07:33S 32°57' E 151°51'5 4.7
2014-Nov-18 06:33S 32°54' E 151°46'2 1.9
2014-Nov-18 05:33S 32°53' E 151°45'0 0.0
2014-Nov-18 04:32S 32°53' E 151°45'0 0.0
2014-Nov-18 03:32S 32°53' E 151°45'0 0.0
2014-Nov-18 02:32S 32°53' E 151°45'0 0.0
2014-Nov-18 00:32S 32°53' E 151°45'0 0.0
2014-Nov-17 22:14S 32°53' E 151°45'0 0.0
2014-Nov-17 19:32S 32°53' E 151°45'0 0.0
2014-Nov-17 18:32S 32°53' E 151°45'0 0.0
2014-Nov-17 17:32S 32°53' E 151°45'0 0.0
2014-Nov-17 16:32S 32°53' E 151°45'0 0.0
2014-Nov-17 15:31S 32°53' E 151°45'0 0.0
2014-Nov-17 14:31S 32°53' E 151°45'0 0.0
2014-Nov-17 13:31S 32°53' E 151°45'0 0.0
2014-Nov-17 12:28S 32°53' E 151°45'0 0.0
2014-Nov-17 11:25S 32°53' E 151°45'0 0.0
2014-Nov-17 08:29S 32°53' E 151°45'0 0.0
2014-Nov-17 07:32S 32°53' E 151°45'0 0.0
2014-Nov-17 06:32S 32°53' E 151°45'0 0.0
2014-Nov-17 05:29S 32°53' E 151°45'0 0.0
2014-Nov-17 04:32S 32°53' E 151°45'0 0.0
2014-Nov-17 03:32S 32°53' E 151°45'0 0.0
2014-Nov-17 02:32S 32°53' E 151°45'0 0.0
2014-Nov-17 01:32S 32°53' E 151°45'0 0.0
2014-Nov-17 00:32S 32°53' E 151°45'0 0.0
2014-Nov-16 23:32S 32°53' E 151°45'0 0.0
2014-Nov-16 22:32S 32°53' E 151°45'0 0.0
2014-Nov-16 21:26S 32°53' E 151°45'0 0.0
2014-Nov-16 20:32S 32°53' E 151°45'0 0.4
2014-Nov-16 19:33S 32°53' E 151°45'3 2.8
2014-Nov-16 18:34S 32°55' E 151°48'8 8.5
2014-Nov-16 17:33S 32°58' E 151°57'10 9.8
2014-Nov-16 16:33S 32°58' E 152°09'2 2.2
2014-Nov-16 15:33S 32°58' E 152°12'1 0.9
2014-Nov-16 14:33S 32°59' E 152°11'1 1.2
2014-Nov-16 13:27S 33°00' E 152°10'1 1.4
2014-Nov-16 12:33S 33°01' E 152°10'1 1.5
2014-Nov-16 11:33S 33°02' E 152°09'2 1.6
2014-Nov-16 10:33S 33°04' E 152°08'2 1.5
2014-Nov-16 09:33S 33°05' E 152°06'2 1.6
2014-Nov-16 08:33S 33°06' E 152°05'3 2.9
2014-Nov-16 07:33S 33°05' E 152°02'8 8.1
2014-Nov-16 06:33S 33°00' E 151°54'6 6.0
2014-Nov-16 05:33S 33°05' E 151°59'2 1.8
2014-Nov-16 04:33S 33°03' E 151°58'3 1.9
2014-Nov-16 03:15S 33°01' E 151°57'1 1.4
2014-Nov-16 02:33S 32°60' E 151°56'2 1.5
2014-Nov-16 01:34S 33°01' E 151°55'7 6.6
2014-Nov-16 00:34S 33°04' E 152°02'6 5.3
2014-Nov-15 23:32S 33°07' E 152°07'2 1.5
2014-Nov-15 22:22S 33°06' E 152°06'1 1.7
2014-Nov-15 21:34S 33°04' E 152°06'9 8.9
2014-Nov-15 20:33S 32°57' E 151°60'1212.2
2014-Nov-15 19:34S 32°50' E 152°12'1312.9
2014-Nov-15 18:33S 32°41' E 152°23'1212.3
2014-Nov-15 17:34S 32°33' E 152°34'1312.3
2014-Nov-15 16:30S 32°20' E 152°37'29413.8
2014-Nov-14 19:16S 27°31' E 153°40'1014.1
2014-Nov-14 18:33S 27°21' E 153°41'1413.6
2014-Nov-14 17:33S 27°08' E 153°42'1413.8
2014-Nov-14 16:33S 26°54' E 153°43'1413.9
2014-Nov-14 15:33S 26°40' E 153°43'1414.1
2014-Nov-14 14:33S 26°26' E 153°45'2914.4
2014-Nov-14 12:33S 25°57' E 153°49'1515.3
2014-Nov-14 11:33S 25°42' E 153°50'1716.8
2014-Nov-14 10:34S 25°25' E 153°49'  

Dump ship's entire track history